<?xml version="1.0" encoding="UTF-8" standalone="no" ?>
<gpx xmlns="http://www.topografix.com/GPX/1/1" xmlns:xsi="http://www.w3.org/2001/XMLSchema-instance" xsi:schemaLocation="http://www.topografix.com/GPX/1/1 http://www.topografix.com/GPX/1/1/gpx.xsd" version="1.1" creator="VisuGPX - https://www.visugpx.com">
  <metadata>
    <name>Munster M6</name>
  </metadata>
  <trk>
    <name><![CDATA[OR-4123731--Breitenbach-Haut-Rhin:M6]]></name>
    <trkseg>
      <trkpt lat="48.02573" lon="7.10795">
        <ele>446</ele>
        <time>2017-05-28T20:46:28Z</time>
      </trkpt>
      <trkpt lat="48.02661" lon="7.11176">
        <ele>476</ele>
        <time>2017-05-28T20:48:28Z</time>
      </trkpt>
      <trkpt lat="48.02716" lon="7.11473">
        <ele>488</ele>
        <time>2017-05-28T20:50:28Z</time>
      </trkpt>
      <trkpt lat="48.02743" lon="7.1165">
        <ele>503</ele>
        <time>2017-05-28T20:52:28Z</time>
      </trkpt>
      <trkpt lat="48.02728" lon="7.11639">
        <ele>509</ele>
        <time>2017-05-28T20:54:28Z</time>
      </trkpt>
      <trkpt lat="48.02717" lon="7.11628">
        <ele>513</ele>
        <time>2017-05-28T20:56:28Z</time>
      </trkpt>
      <trkpt lat="48.0257" lon="7.11242">
        <ele>527</ele>
        <time>2017-05-28T20:58:28Z</time>
      </trkpt>
      <trkpt lat="48.02522" lon="7.11089">
        <ele>532</ele>
        <time>2017-05-28T21:00:28Z</time>
      </trkpt>
      <trkpt lat="48.02451" lon="7.10959">
        <ele>539</ele>
        <time>2017-05-28T21:02:28Z</time>
      </trkpt>
      <trkpt lat="48.02244" lon="7.10782">
        <ele>550</ele>
        <time>2017-05-28T21:04:28Z</time>
      </trkpt>
      <trkpt lat="48.02251" lon="7.1084">
        <ele>563</ele>
        <time>2017-05-28T21:06:28Z</time>
      </trkpt>
      <trkpt lat="48.02296" lon="7.10911">
        <ele>572</ele>
        <time>2017-05-28T21:08:28Z</time>
      </trkpt>
      <trkpt lat="48.02354" lon="7.11024">
        <ele>579</ele>
        <time>2017-05-28T21:10:28Z</time>
      </trkpt>
      <trkpt lat="48.02371" lon="7.11059">
        <ele>580</ele>
        <time>2017-05-28T21:12:28Z</time>
      </trkpt>
      <trkpt lat="48.0239" lon="7.11128">
        <ele>583</ele>
        <time>2017-05-28T21:14:28Z</time>
      </trkpt>
      <trkpt lat="48.02392" lon="7.11192">
        <ele>586</ele>
        <time>2017-05-28T21:16:28Z</time>
      </trkpt>
      <trkpt lat="48.02408" lon="7.11307">
        <ele>583</ele>
        <time>2017-05-28T21:18:28Z</time>
      </trkpt>
      <trkpt lat="48.02485" lon="7.1156">
        <ele>595</ele>
        <time>2017-05-28T21:20:28Z</time>
      </trkpt>
      <trkpt lat="48.02507" lon="7.11682">
        <ele>596</ele>
        <time>2017-05-28T21:22:28Z</time>
      </trkpt>
      <trkpt lat="48.0249" lon="7.11778">
        <ele>600</ele>
        <time>2017-05-28T21:24:28Z</time>
      </trkpt>
      <trkpt lat="48.02472" lon="7.1184">
        <ele>598</ele>
        <time>2017-05-28T21:26:28Z</time>
      </trkpt>
      <trkpt lat="48.02464" lon="7.11806">
        <ele>600</ele>
        <time>2017-05-28T21:28:28Z</time>
      </trkpt>
      <trkpt lat="48.02469" lon="7.11746">
        <ele>602</ele>
        <time>2017-05-28T21:30:28Z</time>
      </trkpt>
      <trkpt lat="48.02464" lon="7.11705">
        <ele>605</ele>
        <time>2017-05-28T21:32:28Z</time>
      </trkpt>
      <trkpt lat="48.02442" lon="7.11636">
        <ele>611</ele>
        <time>2017-05-28T21:34:28Z</time>
      </trkpt>
      <trkpt lat="48.02387" lon="7.11527">
        <ele>621</ele>
        <time>2017-05-28T21:36:28Z</time>
      </trkpt>
      <trkpt lat="48.02364" lon="7.11488">
        <ele>624</ele>
        <time>2017-05-28T21:38:28Z</time>
      </trkpt>
      <trkpt lat="48.02301" lon="7.11338">
        <ele>626</ele>
        <time>2017-05-28T21:40:28Z</time>
      </trkpt>
      <trkpt lat="48.02301" lon="7.11385">
        <ele>630</ele>
        <time>2017-05-28T21:42:28Z</time>
      </trkpt>
      <trkpt lat="48.02315" lon="7.11433">
        <ele>632</ele>
        <time>2017-05-28T21:44:28Z</time>
      </trkpt>
      <trkpt lat="48.02333" lon="7.11479">
        <ele>633</ele>
        <time>2017-05-28T21:46:28Z</time>
      </trkpt>
      <trkpt lat="48.02379" lon="7.11577">
        <ele>627</ele>
        <time>2017-05-28T21:48:28Z</time>
      </trkpt>
      <trkpt lat="48.02398" lon="7.11609">
        <ele>621</ele>
        <time>2017-05-28T21:50:28Z</time>
      </trkpt>
      <trkpt lat="48.02397" lon="7.11669">
        <ele>619</ele>
        <time>2017-05-28T21:52:28Z</time>
      </trkpt>
      <trkpt lat="48.02375" lon="7.11711">
        <ele>612</ele>
        <time>2017-05-28T21:54:28Z</time>
      </trkpt>
      <trkpt lat="48.02328" lon="7.11723">
        <ele>611</ele>
        <time>2017-05-28T21:56:28Z</time>
      </trkpt>
      <trkpt lat="48.02232" lon="7.11755">
        <ele>618</ele>
        <time>2017-05-28T21:58:28Z</time>
      </trkpt>
      <trkpt lat="48.02198" lon="7.11752">
        <ele>623</ele>
        <time>2017-05-28T22:00:28Z</time>
      </trkpt>
      <trkpt lat="48.02128" lon="7.11765">
        <ele>634</ele>
        <time>2017-05-28T22:02:28Z</time>
      </trkpt>
      <trkpt lat="48.02072" lon="7.11817">
        <ele>636</ele>
        <time>2017-05-28T22:04:28Z</time>
      </trkpt>
      <trkpt lat="48.0205" lon="7.11903">
        <ele>633</ele>
        <time>2017-05-28T22:06:28Z</time>
      </trkpt>
      <trkpt lat="48.02035" lon="7.11989">
        <ele>640</ele>
        <time>2017-05-28T22:08:28Z</time>
      </trkpt>
      <trkpt lat="48.02046" lon="7.1205">
        <ele>645</ele>
        <time>2017-05-28T22:10:28Z</time>
      </trkpt>
      <trkpt lat="48.02062" lon="7.12112">
        <ele>650</ele>
        <time>2017-05-28T22:12:28Z</time>
      </trkpt>
      <trkpt lat="48.02079" lon="7.12134">
        <ele>648</ele>
        <time>2017-05-28T22:14:28Z</time>
      </trkpt>
      <trkpt lat="48.02077" lon="7.12224">
        <ele>665</ele>
        <time>2017-05-28T22:16:28Z</time>
      </trkpt>
      <trkpt lat="48.02066" lon="7.12347">
        <ele>668</ele>
        <time>2017-05-28T22:18:28Z</time>
      </trkpt>
      <trkpt lat="48.02028" lon="7.12388">
        <ele>668</ele>
        <time>2017-05-28T22:20:28Z</time>
      </trkpt>
      <trkpt lat="48.01893" lon="7.12432">
        <ele>673</ele>
        <time>2017-05-28T22:22:28Z</time>
      </trkpt>
      <trkpt lat="48.01782" lon="7.12446">
        <ele>671</ele>
        <time>2017-05-28T22:24:28Z</time>
      </trkpt>
      <trkpt lat="48.01645" lon="7.12443">
        <ele>683</ele>
        <time>2017-05-28T22:26:28Z</time>
      </trkpt>
      <trkpt lat="48.0154" lon="7.12417">
        <ele>677</ele>
        <time>2017-05-28T22:28:28Z</time>
      </trkpt>
      <trkpt lat="48.01479" lon="7.12318">
        <ele>693</ele>
        <time>2017-05-28T22:30:28Z</time>
      </trkpt>
      <trkpt lat="48.01451" lon="7.12278">
        <ele>707</ele>
        <time>2017-05-28T22:32:28Z</time>
      </trkpt>
      <trkpt lat="48.01513" lon="7.12311">
        <ele>700</ele>
        <time>2017-05-28T22:34:28Z</time>
      </trkpt>
      <trkpt lat="48.01596" lon="7.12368">
        <ele>702</ele>
        <time>2017-05-28T22:36:28Z</time>
      </trkpt>
      <trkpt lat="48.01643" lon="7.12389">
        <ele>701</ele>
        <time>2017-05-28T22:38:28Z</time>
      </trkpt>
      <trkpt lat="48.01697" lon="7.12378">
        <ele>703</ele>
        <time>2017-05-28T22:40:28Z</time>
      </trkpt>
      <trkpt lat="48.01744" lon="7.12335">
        <ele>711</ele>
        <time>2017-05-28T22:42:28Z</time>
      </trkpt>
      <trkpt lat="48.01781" lon="7.12311">
        <ele>715</ele>
        <time>2017-05-28T22:44:28Z</time>
      </trkpt>
      <trkpt lat="48.01822" lon="7.12305">
        <ele>713</ele>
        <time>2017-05-28T22:46:28Z</time>
      </trkpt>
      <trkpt lat="48.0186" lon="7.12305">
        <ele>710</ele>
        <time>2017-05-28T22:48:28Z</time>
      </trkpt>
      <trkpt lat="48.0187" lon="7.12279">
        <ele>713</ele>
        <time>2017-05-28T22:50:28Z</time>
      </trkpt>
      <trkpt lat="48.01831" lon="7.12259">
        <ele>720</ele>
        <time>2017-05-28T22:52:28Z</time>
      </trkpt>
      <trkpt lat="48.01774" lon="7.12254">
        <ele>728</ele>
        <time>2017-05-28T22:54:28Z</time>
      </trkpt>
      <trkpt lat="48.01711" lon="7.12268">
        <ele>729</ele>
        <time>2017-05-28T22:56:28Z</time>
      </trkpt>
      <trkpt lat="48.01641" lon="7.12275">
        <ele>729</ele>
        <time>2017-05-28T22:58:28Z</time>
      </trkpt>
      <trkpt lat="48.01588" lon="7.1225">
        <ele>733</ele>
        <time>2017-05-28T23:00:28Z</time>
      </trkpt>
      <trkpt lat="48.01533" lon="7.12212">
        <ele>735</ele>
        <time>2017-05-28T23:02:28Z</time>
      </trkpt>
      <trkpt lat="48.01474" lon="7.12176">
        <ele>744</ele>
        <time>2017-05-28T23:04:28Z</time>
      </trkpt>
      <trkpt lat="48.01436" lon="7.12166">
        <ele>750</ele>
        <time>2017-05-28T23:06:28Z</time>
      </trkpt>
      <trkpt lat="48.01379" lon="7.12184">
        <ele>747</ele>
        <time>2017-05-28T23:08:28Z</time>
      </trkpt>
      <trkpt lat="48.01322" lon="7.12196">
        <ele>746</ele>
        <time>2017-05-28T23:10:28Z</time>
      </trkpt>
      <trkpt lat="48.01263" lon="7.12194">
        <ele>743</ele>
        <time>2017-05-28T23:12:28Z</time>
      </trkpt>
      <trkpt lat="48.01239" lon="7.12182">
        <ele>744</ele>
        <time>2017-05-28T23:14:28Z</time>
      </trkpt>
      <trkpt lat="48.01209" lon="7.12202">
        <ele>743</ele>
        <time>2017-05-28T23:16:28Z</time>
      </trkpt>
      <trkpt lat="48.01142" lon="7.123">
        <ele>744</ele>
        <time>2017-05-28T23:18:28Z</time>
      </trkpt>
      <trkpt lat="48.01142" lon="7.12341">
        <ele>741</ele>
        <time>2017-05-28T23:20:28Z</time>
      </trkpt>
      <trkpt lat="48.01114" lon="7.12489">
        <ele>732</ele>
        <time>2017-05-28T23:22:28Z</time>
      </trkpt>
      <trkpt lat="48.01075" lon="7.1261">
        <ele>726</ele>
        <time>2017-05-28T23:24:28Z</time>
      </trkpt>
      <trkpt lat="48.01075" lon="7.12663">
        <ele>729</ele>
        <time>2017-05-28T23:26:28Z</time>
      </trkpt>
      <trkpt lat="48.01097" lon="7.12692">
        <ele>737</ele>
        <time>2017-05-28T23:28:28Z</time>
      </trkpt>
      <trkpt lat="48.0113" lon="7.12709">
        <ele>743</ele>
        <time>2017-05-28T23:30:28Z</time>
      </trkpt>
      <trkpt lat="48.01173" lon="7.12699">
        <ele>741</ele>
        <time>2017-05-28T23:32:28Z</time>
      </trkpt>
      <trkpt lat="48.01212" lon="7.12679">
        <ele>737</ele>
        <time>2017-05-28T23:34:28Z</time>
      </trkpt>
      <trkpt lat="48.0125" lon="7.12679">
        <ele>739</ele>
        <time>2017-05-28T23:36:28Z</time>
      </trkpt>
      <trkpt lat="48.01294" lon="7.12707">
        <ele>743</ele>
        <time>2017-05-28T23:38:28Z</time>
      </trkpt>
      <trkpt lat="48.01322" lon="7.1274">
        <ele>749</ele>
        <time>2017-05-28T23:40:28Z</time>
      </trkpt>
      <trkpt lat="48.01345" lon="7.12792">
        <ele>756</ele>
        <time>2017-05-28T23:42:28Z</time>
      </trkpt>
      <trkpt lat="48.01364" lon="7.12868">
        <ele>761</ele>
        <time>2017-05-28T23:44:28Z</time>
      </trkpt>
      <trkpt lat="48.01372" lon="7.12949">
        <ele>765</ele>
        <time>2017-05-28T23:46:28Z</time>
      </trkpt>
      <trkpt lat="48.01353" lon="7.13034">
        <ele>775</ele>
        <time>2017-05-28T23:48:28Z</time>
      </trkpt>
      <trkpt lat="48.01358" lon="7.13136">
        <ele>782</ele>
        <time>2017-05-28T23:50:28Z</time>
      </trkpt>
      <trkpt lat="48.01372" lon="7.1317">
        <ele>784</ele>
        <time>2017-05-28T23:52:28Z</time>
      </trkpt>
      <trkpt lat="48.01405" lon="7.1319">
        <ele>788</ele>
        <time>2017-05-28T23:54:28Z</time>
      </trkpt>
      <trkpt lat="48.01455" lon="7.13181">
        <ele>787</ele>
        <time>2017-05-28T23:56:28Z</time>
      </trkpt>
      <trkpt lat="48.01497" lon="7.13195">
        <ele>793</ele>
        <time>2017-05-28T23:58:28Z</time>
      </trkpt>
      <trkpt lat="48.01551" lon="7.13197">
        <ele>795</ele>
        <time>2017-05-29T00:00:28Z</time>
      </trkpt>
      <trkpt lat="48.01594" lon="7.13204">
        <ele>797</ele>
        <time>2017-05-29T00:02:28Z</time>
      </trkpt>
      <trkpt lat="48.01655" lon="7.132">
        <ele>795</ele>
        <time>2017-05-29T00:04:28Z</time>
      </trkpt>
      <trkpt lat="48.01714" lon="7.13225">
        <ele>796</ele>
        <time>2017-05-29T00:06:28Z</time>
      </trkpt>
      <trkpt lat="48.01801" lon="7.13317">
        <ele>801</ele>
        <time>2017-05-29T00:08:28Z</time>
      </trkpt>
      <trkpt lat="48.01833" lon="7.13347">
        <ele>800</ele>
        <time>2017-05-29T00:10:28Z</time>
      </trkpt>
      <trkpt lat="48.01876" lon="7.13344">
        <ele>797</ele>
        <time>2017-05-29T00:12:28Z</time>
      </trkpt>
      <trkpt lat="48.01965" lon="7.13366">
        <ele>793</ele>
        <time>2017-05-29T00:14:28Z</time>
      </trkpt>
      <trkpt lat="48.02037" lon="7.13385">
        <ele>790</ele>
        <time>2017-05-29T00:16:28Z</time>
      </trkpt>
      <trkpt lat="48.02105" lon="7.13422">
        <ele>788</ele>
        <time>2017-05-29T00:18:28Z</time>
      </trkpt>
      <trkpt lat="48.02155" lon="7.13467">
        <ele>783</ele>
        <time>2017-05-29T00:20:28Z</time>
      </trkpt>
      <trkpt lat="48.02176" lon="7.13496">
        <ele>777</ele>
        <time>2017-05-29T00:22:28Z</time>
      </trkpt>
      <trkpt lat="48.02182" lon="7.13526">
        <ele>771</ele>
        <time>2017-05-29T00:24:28Z</time>
      </trkpt>
      <trkpt lat="48.02181" lon="7.13593">
        <ele>761</ele>
        <time>2017-05-29T00:26:28Z</time>
      </trkpt>
      <trkpt lat="48.02177" lon="7.1371">
        <ele>747</ele>
        <time>2017-05-29T00:28:28Z</time>
      </trkpt>
      <trkpt lat="48.02189" lon="7.13742">
        <ele>740</ele>
        <time>2017-05-29T00:30:28Z</time>
      </trkpt>
      <trkpt lat="48.02212" lon="7.1373">
        <ele>739</ele>
        <time>2017-05-29T00:32:28Z</time>
      </trkpt>
      <trkpt lat="48.02221" lon="7.13768">
        <ele>732</ele>
        <time>2017-05-29T00:34:28Z</time>
      </trkpt>
      <trkpt lat="48.02216" lon="7.13798">
        <ele>729</ele>
        <time>2017-05-29T00:36:28Z</time>
      </trkpt>
      <trkpt lat="48.022" lon="7.13854">
        <ele>722</ele>
        <time>2017-05-29T00:38:28Z</time>
      </trkpt>
      <trkpt lat="48.02217" lon="7.13865">
        <ele>719</ele>
        <time>2017-05-29T00:40:28Z</time>
      </trkpt>
      <trkpt lat="48.02232" lon="7.13903">
        <ele>713</ele>
        <time>2017-05-29T00:42:28Z</time>
      </trkpt>
      <trkpt lat="48.02226" lon="7.1394">
        <ele>706</ele>
        <time>2017-05-29T00:44:28Z</time>
      </trkpt>
      <trkpt lat="48.02187" lon="7.13899">
        <ele>714</ele>
        <time>2017-05-29T00:46:28Z</time>
      </trkpt>
      <trkpt lat="48.02112" lon="7.13809">
        <ele>727</ele>
        <time>2017-05-29T00:48:28Z</time>
      </trkpt>
      <trkpt lat="48.02018" lon="7.13777">
        <ele>737</ele>
        <time>2017-05-29T00:50:28Z</time>
      </trkpt>
      <trkpt lat="48.01927" lon="7.13741">
        <ele>745</ele>
        <time>2017-05-29T00:52:28Z</time>
      </trkpt>
      <trkpt lat="48.01904" lon="7.13709">
        <ele>756</ele>
        <time>2017-05-29T00:54:28Z</time>
      </trkpt>
      <trkpt lat="48.0188" lon="7.137">
        <ele>764</ele>
        <time>2017-05-29T00:56:28Z</time>
      </trkpt>
      <trkpt lat="48.01831" lon="7.13729">
        <ele>763</ele>
        <time>2017-05-29T00:58:28Z</time>
      </trkpt>
      <trkpt lat="48.01717" lon="7.13816">
        <ele>759</ele>
        <time>2017-05-29T01:00:28Z</time>
      </trkpt>
      <trkpt lat="48.01636" lon="7.13822">
        <ele>762</ele>
        <time>2017-05-29T01:02:28Z</time>
      </trkpt>
      <trkpt lat="48.01602" lon="7.13833">
        <ele>761</ele>
        <time>2017-05-29T01:04:28Z</time>
      </trkpt>
      <trkpt lat="48.0156" lon="7.13866">
        <ele>765</ele>
        <time>2017-05-29T01:06:28Z</time>
      </trkpt>
      <trkpt lat="48.01494" lon="7.13984">
        <ele>770</ele>
        <time>2017-05-29T01:08:28Z</time>
      </trkpt>
      <trkpt lat="48.01457" lon="7.14021">
        <ele>770</ele>
        <time>2017-05-29T01:10:28Z</time>
      </trkpt>
      <trkpt lat="48.01423" lon="7.14018">
        <ele>779</ele>
        <time>2017-05-29T01:12:28Z</time>
      </trkpt>
      <trkpt lat="48.0133" lon="7.14039">
        <ele>789</ele>
        <time>2017-05-29T01:14:28Z</time>
      </trkpt>
      <trkpt lat="48.01287" lon="7.14032">
        <ele>788</ele>
        <time>2017-05-29T01:16:28Z</time>
      </trkpt>
      <trkpt lat="48.01243" lon="7.14001">
        <ele>795</ele>
        <time>2017-05-29T01:18:28Z</time>
      </trkpt>
      <trkpt lat="48.01209" lon="7.13965">
        <ele>807</ele>
        <time>2017-05-29T01:20:28Z</time>
      </trkpt>
      <trkpt lat="48.01087" lon="7.13967">
        <ele>811</ele>
        <time>2017-05-29T01:22:28Z</time>
      </trkpt>
      <trkpt lat="48.01032" lon="7.13989">
        <ele>806</ele>
        <time>2017-05-29T01:24:28Z</time>
      </trkpt>
      <trkpt lat="48.00978" lon="7.13997">
        <ele>807</ele>
        <time>2017-05-29T01:26:28Z</time>
      </trkpt>
      <trkpt lat="48.00931" lon="7.13986">
        <ele>815</ele>
        <time>2017-05-29T01:28:28Z</time>
      </trkpt>
      <trkpt lat="48.00885" lon="7.13996">
        <ele>821</ele>
        <time>2017-05-29T01:30:28Z</time>
      </trkpt>
      <trkpt lat="48.00843" lon="7.14032">
        <ele>824</ele>
        <time>2017-05-29T01:32:28Z</time>
      </trkpt>
      <trkpt lat="48.00802" lon="7.14105">
        <ele>826</ele>
        <time>2017-05-29T01:34:28Z</time>
      </trkpt>
      <trkpt lat="48.00792" lon="7.14188">
        <ele>825</ele>
        <time>2017-05-29T01:36:28Z</time>
      </trkpt>
      <trkpt lat="48.00792" lon="7.14245">
        <ele>829</ele>
        <time>2017-05-29T01:38:28Z</time>
      </trkpt>
      <trkpt lat="48.00766" lon="7.1422">
        <ele>839</ele>
        <time>2017-05-29T01:40:28Z</time>
      </trkpt>
      <trkpt lat="48.00754" lon="7.14131">
        <ele>847</ele>
        <time>2017-05-29T01:42:28Z</time>
      </trkpt>
      <trkpt lat="48.00764" lon="7.14042">
        <ele>853</ele>
        <time>2017-05-29T01:44:28Z</time>
      </trkpt>
      <trkpt lat="48.00784" lon="7.13949">
        <ele>863</ele>
        <time>2017-05-29T01:46:28Z</time>
      </trkpt>
      <trkpt lat="48.00815" lon="7.13851">
        <ele>876</ele>
        <time>2017-05-29T01:48:28Z</time>
      </trkpt>
      <trkpt lat="48.0085" lon="7.13811">
        <ele>878</ele>
        <time>2017-05-29T01:50:28Z</time>
      </trkpt>
      <trkpt lat="48.00934" lon="7.13758">
        <ele>878</ele>
        <time>2017-05-29T01:52:28Z</time>
      </trkpt>
      <trkpt lat="48.00924" lon="7.1372">
        <ele>881</ele>
        <time>2017-05-29T01:54:28Z</time>
      </trkpt>
      <trkpt lat="48.00859" lon="7.13708">
        <ele>889</ele>
        <time>2017-05-29T01:56:28Z</time>
      </trkpt>
      <trkpt lat="48.00792" lon="7.13745">
        <ele>894</ele>
        <time>2017-05-29T01:58:28Z</time>
      </trkpt>
      <trkpt lat="48.00744" lon="7.13778">
        <ele>898</ele>
        <time>2017-05-29T02:00:28Z</time>
      </trkpt>
      <trkpt lat="48.00734" lon="7.13797">
        <ele>898</ele>
        <time>2017-05-29T02:02:28Z</time>
      </trkpt>
      <trkpt lat="48.00676" lon="7.13839">
        <ele>906</ele>
        <time>2017-05-29T02:04:28Z</time>
      </trkpt>
      <trkpt lat="48.00639" lon="7.13846">
        <ele>909</ele>
        <time>2017-05-29T02:06:28Z</time>
      </trkpt>
      <trkpt lat="48.00574" lon="7.13846">
        <ele>913</ele>
        <time>2017-05-29T02:08:28Z</time>
      </trkpt>
      <trkpt lat="48.00534" lon="7.13826">
        <ele>912</ele>
        <time>2017-05-29T02:10:28Z</time>
      </trkpt>
      <trkpt lat="48.00503" lon="7.13813">
        <ele>911</ele>
        <time>2017-05-29T02:12:28Z</time>
      </trkpt>
      <trkpt lat="48.00482" lon="7.13734">
        <ele>915</ele>
        <time>2017-05-29T02:14:28Z</time>
      </trkpt>
      <trkpt lat="48.0046" lon="7.13561">
        <ele>900</ele>
        <time>2017-05-29T02:16:28Z</time>
      </trkpt>
      <trkpt lat="48.00431" lon="7.13478">
        <ele>896</ele>
        <time>2017-05-29T02:18:28Z</time>
      </trkpt>
      <trkpt lat="48.00422" lon="7.13436">
        <ele>894</ele>
        <time>2017-05-29T02:20:28Z</time>
      </trkpt>
      <trkpt lat="48.00318" lon="7.1334">
        <ele>897</ele>
        <time>2017-05-29T02:22:28Z</time>
      </trkpt>
      <trkpt lat="48.0022" lon="7.13244">
        <ele>906</ele>
        <time>2017-05-29T02:24:28Z</time>
      </trkpt>
      <trkpt lat="48.00178" lon="7.13129">
        <ele>903</ele>
        <time>2017-05-29T02:26:28Z</time>
      </trkpt>
      <trkpt lat="48.00134" lon="7.13041">
        <ele>904</ele>
        <time>2017-05-29T02:28:28Z</time>
      </trkpt>
      <trkpt lat="48.00085" lon="7.12922">
        <ele>901</ele>
        <time>2017-05-29T02:30:28Z</time>
      </trkpt>
      <trkpt lat="48.00063" lon="7.12847">
        <ele>897</ele>
        <time>2017-05-29T02:32:28Z</time>
      </trkpt>
      <trkpt lat="48.00066" lon="7.12786">
        <ele>892</ele>
        <time>2017-05-29T02:34:28Z</time>
      </trkpt>
      <trkpt lat="48.00091" lon="7.12718">
        <ele>889</ele>
        <time>2017-05-29T02:36:28Z</time>
      </trkpt>
      <trkpt lat="48.00121" lon="7.12711">
        <ele>888</ele>
        <time>2017-05-29T02:38:28Z</time>
      </trkpt>
      <trkpt lat="48.00185" lon="7.12724">
        <ele>881</ele>
        <time>2017-05-29T02:40:28Z</time>
      </trkpt>
      <trkpt lat="48.002" lon="7.12685">
        <ele>881</ele>
        <time>2017-05-29T02:42:28Z</time>
      </trkpt>
      <trkpt lat="48.00208" lon="7.12622">
        <ele>884</ele>
        <time>2017-05-29T02:44:28Z</time>
      </trkpt>
      <trkpt lat="48.00202" lon="7.1242">
        <ele>892</ele>
        <time>2017-05-29T02:46:28Z</time>
      </trkpt>
      <trkpt lat="48.0019" lon="7.12335">
        <ele>895</ele>
        <time>2017-05-29T02:48:28Z</time>
      </trkpt>
      <trkpt lat="48.00045" lon="7.12194">
        <ele>907</ele>
        <time>2017-05-29T02:50:28Z</time>
      </trkpt>
      <trkpt lat="47.99908" lon="7.12121">
        <ele>905</ele>
        <time>2017-05-29T02:52:28Z</time>
      </trkpt>
      <trkpt lat="47.99826" lon="7.12043">
        <ele>903</ele>
        <time>2017-05-29T02:54:28Z</time>
      </trkpt>
      <trkpt lat="47.99767" lon="7.11944">
        <ele>908</ele>
        <time>2017-05-29T02:56:28Z</time>
      </trkpt>
      <trkpt lat="47.99754" lon="7.11919">
        <ele>909</ele>
        <time>2017-05-29T02:58:28Z</time>
      </trkpt>
      <trkpt lat="47.99762" lon="7.11839">
        <ele>903</ele>
        <time>2017-05-29T03:00:28Z</time>
      </trkpt>
      <trkpt lat="47.99874" lon="7.11749">
        <ele>897</ele>
        <time>2017-05-29T03:02:28Z</time>
      </trkpt>
      <trkpt lat="47.99996" lon="7.1174">
        <ele>883</ele>
        <time>2017-05-29T03:04:28Z</time>
      </trkpt>
      <trkpt lat="48.00058" lon="7.11719">
        <ele>871</ele>
        <time>2017-05-29T03:06:28Z</time>
      </trkpt>
      <trkpt lat="48.00107" lon="7.11666">
        <ele>867</ele>
        <time>2017-05-29T03:08:28Z</time>
      </trkpt>
      <trkpt lat="48.00134" lon="7.11601">
        <ele>864</ele>
        <time>2017-05-29T03:10:28Z</time>
      </trkpt>
      <trkpt lat="48.0015" lon="7.11485">
        <ele>864</ele>
        <time>2017-05-29T03:12:28Z</time>
      </trkpt>
      <trkpt lat="48.00138" lon="7.11407">
        <ele>868</ele>
        <time>2017-05-29T03:14:28Z</time>
      </trkpt>
      <trkpt lat="48.00135" lon="7.11313">
        <ele>870</ele>
        <time>2017-05-29T03:16:28Z</time>
      </trkpt>
      <trkpt lat="48.0017" lon="7.11222">
        <ele>865</ele>
        <time>2017-05-29T03:18:28Z</time>
      </trkpt>
      <trkpt lat="48.00232" lon="7.11097">
        <ele>863</ele>
        <time>2017-05-29T03:20:28Z</time>
      </trkpt>
      <trkpt lat="48.00262" lon="7.11009">
        <ele>869</ele>
        <time>2017-05-29T03:22:28Z</time>
      </trkpt>
      <trkpt lat="48.00309" lon="7.10909">
        <ele>878</ele>
        <time>2017-05-29T03:24:28Z</time>
      </trkpt>
      <trkpt lat="48.00353" lon="7.10822">
        <ele>886</ele>
        <time>2017-05-29T03:26:28Z</time>
      </trkpt>
      <trkpt lat="48.00367" lon="7.10753">
        <ele>890</ele>
        <time>2017-05-29T03:28:28Z</time>
      </trkpt>
      <trkpt lat="48.00316" lon="7.10695">
        <ele>894</ele>
        <time>2017-05-29T03:30:28Z</time>
      </trkpt>
      <trkpt lat="48.00207" lon="7.10641">
        <ele>908</ele>
        <time>2017-05-29T03:32:28Z</time>
      </trkpt>
      <trkpt lat="48.00107" lon="7.10606">
        <ele>919</ele>
        <time>2017-05-29T03:34:28Z</time>
      </trkpt>
      <trkpt lat="48.00044" lon="7.10613">
        <ele>924</ele>
        <time>2017-05-29T03:36:28Z</time>
      </trkpt>
      <trkpt lat="47.99864" lon="7.10718">
        <ele>951</ele>
        <time>2017-05-29T03:38:28Z</time>
      </trkpt>
      <trkpt lat="47.99799" lon="7.10715">
        <ele>958</ele>
        <time>2017-05-29T03:40:28Z</time>
      </trkpt>
      <trkpt lat="47.99744" lon="7.10687">
        <ele>966</ele>
        <time>2017-05-29T03:42:28Z</time>
      </trkpt>
      <trkpt lat="47.99721" lon="7.10631">
        <ele>966</ele>
        <time>2017-05-29T03:44:28Z</time>
      </trkpt>
      <trkpt lat="47.99699" lon="7.10572">
        <ele>968</ele>
        <time>2017-05-29T03:46:28Z</time>
      </trkpt>
      <trkpt lat="47.99668" lon="7.10381">
        <ele>985</ele>
        <time>2017-05-29T03:48:28Z</time>
      </trkpt>
      <trkpt lat="47.99677" lon="7.10281">
        <ele>985</ele>
        <time>2017-05-29T03:50:28Z</time>
      </trkpt>
      <trkpt lat="47.99686" lon="7.10215">
        <ele>986</ele>
        <time>2017-05-29T03:52:28Z</time>
      </trkpt>
      <trkpt lat="47.99695" lon="7.10125">
        <ele>988</ele>
        <time>2017-05-29T03:54:28Z</time>
      </trkpt>
      <trkpt lat="47.99686" lon="7.1001">
        <ele>989</ele>
        <time>2017-05-29T03:56:28Z</time>
      </trkpt>
      <trkpt lat="47.99652" lon="7.0996">
        <ele>992</ele>
        <time>2017-05-29T03:58:28Z</time>
      </trkpt>
      <trkpt lat="47.99587" lon="7.09938">
        <ele>994</ele>
        <time>2017-05-29T04:00:28Z</time>
      </trkpt>
      <trkpt lat="47.9949" lon="7.10006">
        <ele>1001</ele>
        <time>2017-05-29T04:02:28Z</time>
      </trkpt>
      <trkpt lat="47.9941" lon="7.10046">
        <ele>1005</ele>
        <time>2017-05-29T04:04:28Z</time>
      </trkpt>
      <trkpt lat="47.99356" lon="7.10095">
        <ele>1016</ele>
        <time>2017-05-29T04:06:28Z</time>
      </trkpt>
      <trkpt lat="47.993" lon="7.10069">
        <ele>1011</ele>
        <time>2017-05-29T04:08:28Z</time>
      </trkpt>
      <trkpt lat="47.99228" lon="7.1009">
        <ele>1014</ele>
        <time>2017-05-29T04:10:28Z</time>
      </trkpt>
      <trkpt lat="47.99171" lon="7.10152">
        <ele>1016</ele>
        <time>2017-05-29T04:12:28Z</time>
      </trkpt>
      <trkpt lat="47.99075" lon="7.10361">
        <ele>1026</ele>
        <time>2017-05-29T04:14:28Z</time>
      </trkpt>
      <trkpt lat="47.99007" lon="7.10684">
        <ele>1040</ele>
        <time>2017-05-29T04:16:28Z</time>
      </trkpt>
      <trkpt lat="47.9899" lon="7.10733">
        <ele>1044</ele>
        <time>2017-05-29T04:18:28Z</time>
      </trkpt>
      <trkpt lat="47.988" lon="7.11024">
        <ele>1047</ele>
        <time>2017-05-29T04:20:28Z</time>
      </trkpt>
      <trkpt lat="47.98792" lon="7.11107">
        <ele>1050</ele>
        <time>2017-05-29T04:22:28Z</time>
      </trkpt>
      <trkpt lat="47.98797" lon="7.11138">
        <ele>1052</ele>
        <time>2017-05-29T04:24:28Z</time>
      </trkpt>
      <trkpt lat="47.98833" lon="7.11312">
        <ele>1073</ele>
        <time>2017-05-29T04:26:28Z</time>
      </trkpt>
      <trkpt lat="47.98796" lon="7.11443">
        <ele>1086</ele>
        <time>2017-05-29T04:28:28Z</time>
      </trkpt>
      <trkpt lat="47.9875" lon="7.11479">
        <ele>1086</ele>
        <time>2017-05-29T04:30:28Z</time>
      </trkpt>
      <trkpt lat="47.987" lon="7.11485">
        <ele>1091</ele>
        <time>2017-05-29T04:32:28Z</time>
      </trkpt>
      <trkpt lat="47.98652" lon="7.11494">
        <ele>1094</ele>
        <time>2017-05-29T04:34:28Z</time>
      </trkpt>
      <trkpt lat="47.98596" lon="7.11546">
        <ele>1098</ele>
        <time>2017-05-29T04:36:28Z</time>
      </trkpt>
      <trkpt lat="47.98514" lon="7.11676">
        <ele>1106</ele>
        <time>2017-05-29T04:38:28Z</time>
      </trkpt>
      <trkpt lat="47.98445" lon="7.11821">
        <ele>1121</ele>
        <time>2017-05-29T04:40:28Z</time>
      </trkpt>
      <trkpt lat="47.98379" lon="7.11898">
        <ele>1124</ele>
        <time>2017-05-29T04:42:28Z</time>
      </trkpt>
      <trkpt lat="47.98323" lon="7.11937">
        <ele>1129</ele>
        <time>2017-05-29T04:44:28Z</time>
      </trkpt>
      <trkpt lat="47.98292" lon="7.11934">
        <ele>1129</ele>
        <time>2017-05-29T04:46:28Z</time>
      </trkpt>
      <trkpt lat="47.98259" lon="7.11914">
        <ele>1126</ele>
        <time>2017-05-29T04:48:28Z</time>
      </trkpt>
      <trkpt lat="47.98159" lon="7.11986">
        <ele>1142</ele>
        <time>2017-05-29T04:50:28Z</time>
      </trkpt>
      <trkpt lat="47.98195" lon="7.12002">
        <ele>1146</ele>
        <time>2017-05-29T04:52:28Z</time>
      </trkpt>
      <trkpt lat="47.98252" lon="7.12035">
        <ele>1153</ele>
        <time>2017-05-29T04:54:28Z</time>
      </trkpt>
      <trkpt lat="47.98296" lon="7.12045">
        <ele>1156</ele>
        <time>2017-05-29T04:56:28Z</time>
      </trkpt>
      <trkpt lat="47.98353" lon="7.1204">
        <ele>1156</ele>
        <time>2017-05-29T04:58:28Z</time>
      </trkpt>
      <trkpt lat="47.98405" lon="7.12032">
        <ele>1155</ele>
        <time>2017-05-29T05:00:28Z</time>
      </trkpt>
      <trkpt lat="47.98441" lon="7.12022">
        <ele>1155</ele>
        <time>2017-05-29T05:02:28Z</time>
      </trkpt>
      <trkpt lat="47.98476" lon="7.12055">
        <ele>1160</ele>
        <time>2017-05-29T05:04:28Z</time>
      </trkpt>
      <trkpt lat="47.98504" lon="7.12094">
        <ele>1162</ele>
        <time>2017-05-29T05:06:28Z</time>
      </trkpt>
      <trkpt lat="47.98516" lon="7.12116">
        <ele>1161</ele>
        <time>2017-05-29T05:08:28Z</time>
      </trkpt>
      <trkpt lat="47.98524" lon="7.12207">
        <ele>1163</ele>
        <time>2017-05-29T05:10:28Z</time>
      </trkpt>
      <trkpt lat="47.98542" lon="7.12309">
        <ele>1162</ele>
        <time>2017-05-29T05:12:28Z</time>
      </trkpt>
      <trkpt lat="47.98528" lon="7.12395">
        <ele>1162</ele>
        <time>2017-05-29T05:14:28Z</time>
      </trkpt>
      <trkpt lat="47.98483" lon="7.12539">
        <ele>1167</ele>
        <time>2017-05-29T05:16:28Z</time>
      </trkpt>
      <trkpt lat="47.98468" lon="7.12742">
        <ele>1169</ele>
        <time>2017-05-29T05:18:28Z</time>
      </trkpt>
      <trkpt lat="47.98522" lon="7.12908">
        <ele>1161</ele>
        <time>2017-05-29T05:20:28Z</time>
      </trkpt>
      <trkpt lat="47.98547" lon="7.1296">
        <ele>1159</ele>
        <time>2017-05-29T05:22:28Z</time>
      </trkpt>
      <trkpt lat="47.98564" lon="7.13056">
        <ele>1154</ele>
        <time>2017-05-29T05:24:28Z</time>
      </trkpt>
      <trkpt lat="47.98547" lon="7.13122">
        <ele>1148</ele>
        <time>2017-05-29T05:26:28Z</time>
      </trkpt>
      <trkpt lat="47.98517" lon="7.13199">
        <ele>1137</ele>
        <time>2017-05-29T05:28:28Z</time>
      </trkpt>
      <trkpt lat="47.98486" lon="7.1329">
        <ele>1119</ele>
        <time>2017-05-29T05:30:28Z</time>
      </trkpt>
      <trkpt lat="47.98525" lon="7.13291">
        <ele>1116</ele>
        <time>2017-05-29T05:32:28Z</time>
      </trkpt>
      <trkpt lat="47.98564" lon="7.13257">
        <ele>1119</ele>
        <time>2017-05-29T05:34:28Z</time>
      </trkpt>
      <trkpt lat="47.98589" lon="7.13266">
        <ele>1114</ele>
        <time>2017-05-29T05:36:28Z</time>
      </trkpt>
      <trkpt lat="47.98577" lon="7.13289">
        <ele>1109</ele>
        <time>2017-05-29T05:38:28Z</time>
      </trkpt>
      <trkpt lat="47.98496" lon="7.13395">
        <ele>1093</ele>
        <time>2017-05-29T05:40:28Z</time>
      </trkpt>
      <trkpt lat="47.98464" lon="7.13399">
        <ele>1090</ele>
        <time>2017-05-29T05:42:28Z</time>
      </trkpt>
      <trkpt lat="47.98421" lon="7.13355">
        <ele>1100</ele>
        <time>2017-05-29T05:44:28Z</time>
      </trkpt>
      <trkpt lat="47.98356" lon="7.13292">
        <ele>1099</ele>
        <time>2017-05-29T05:46:28Z</time>
      </trkpt>
      <trkpt lat="47.98298" lon="7.1327">
        <ele>1094</ele>
        <time>2017-05-29T05:48:28Z</time>
      </trkpt>
      <trkpt lat="47.9825" lon="7.13333">
        <ele>1071</ele>
        <time>2017-05-29T05:50:28Z</time>
      </trkpt>
      <trkpt lat="47.98216" lon="7.13403">
        <ele>1060</ele>
        <time>2017-05-29T05:52:28Z</time>
      </trkpt>
      <trkpt lat="47.98167" lon="7.13446">
        <ele>1057</ele>
        <time>2017-05-29T05:54:28Z</time>
      </trkpt>
      <trkpt lat="47.98095" lon="7.13436">
        <ele>1051</ele>
        <time>2017-05-29T05:56:28Z</time>
      </trkpt>
      <trkpt lat="47.98064" lon="7.13433">
        <ele>1054</ele>
        <time>2017-05-29T05:58:28Z</time>
      </trkpt>
      <trkpt lat="47.98039" lon="7.13495">
        <ele>1049</ele>
        <time>2017-05-29T06:00:28Z</time>
      </trkpt>
      <trkpt lat="47.98025" lon="7.1355">
        <ele>1038</ele>
        <time>2017-05-29T06:02:28Z</time>
      </trkpt>
      <trkpt lat="47.97999" lon="7.13592">
        <ele>1033</ele>
        <time>2017-05-29T06:04:28Z</time>
      </trkpt>
      <trkpt lat="47.97964" lon="7.13619">
        <ele>1039</ele>
        <time>2017-05-29T06:06:28Z</time>
      </trkpt>
      <trkpt lat="47.97921" lon="7.13796">
        <ele>1005</ele>
        <time>2017-05-29T06:08:28Z</time>
      </trkpt>
      <trkpt lat="47.97895" lon="7.13867">
        <ele>996</ele>
        <time>2017-05-29T06:10:28Z</time>
      </trkpt>
      <trkpt lat="47.97866" lon="7.13912">
        <ele>998</ele>
        <time>2017-05-29T06:12:28Z</time>
      </trkpt>
      <trkpt lat="47.97848" lon="7.14017">
        <ele>984</ele>
        <time>2017-05-29T06:14:28Z</time>
      </trkpt>
      <trkpt lat="47.97846" lon="7.14131">
        <ele>970</ele>
        <time>2017-05-29T06:16:28Z</time>
      </trkpt>
      <trkpt lat="47.97837" lon="7.14234">
        <ele>958</ele>
        <time>2017-05-29T06:18:28Z</time>
      </trkpt>
      <trkpt lat="47.97834" lon="7.14254">
        <ele>956</ele>
        <time>2017-05-29T06:20:28Z</time>
      </trkpt>
      <trkpt lat="47.97794" lon="7.14288">
        <ele>957</ele>
        <time>2017-05-29T06:22:28Z</time>
      </trkpt>
      <trkpt lat="47.97775" lon="7.14329">
        <ele>955</ele>
        <time>2017-05-29T06:24:28Z</time>
      </trkpt>
      <trkpt lat="47.97835" lon="7.14335">
        <ele>941</ele>
        <time>2017-05-29T06:26:28Z</time>
      </trkpt>
      <trkpt lat="47.97919" lon="7.14376">
        <ele>923</ele>
        <time>2017-05-29T06:28:28Z</time>
      </trkpt>
      <trkpt lat="47.97907" lon="7.14392">
        <ele>923</ele>
        <time>2017-05-29T06:30:28Z</time>
      </trkpt>
      <trkpt lat="47.97874" lon="7.14392">
        <ele>926</ele>
        <time>2017-05-29T06:32:28Z</time>
      </trkpt>
      <trkpt lat="47.97823" lon="7.14421">
        <ele>927</ele>
        <time>2017-05-29T06:34:28Z</time>
      </trkpt>
      <trkpt lat="47.97793" lon="7.14482">
        <ele>924</ele>
        <time>2017-05-29T06:36:28Z</time>
      </trkpt>
      <trkpt lat="47.97784" lon="7.14538">
        <ele>915</ele>
        <time>2017-05-29T06:38:28Z</time>
      </trkpt>
      <trkpt lat="47.97757" lon="7.14596">
        <ele>908</ele>
        <time>2017-05-29T06:40:28Z</time>
      </trkpt>
      <trkpt lat="47.97671" lon="7.14709">
        <ele>887</ele>
        <time>2017-05-29T06:42:28Z</time>
      </trkpt>
      <trkpt lat="47.97739" lon="7.14705">
        <ele>876</ele>
        <time>2017-05-29T06:44:28Z</time>
      </trkpt>
      <trkpt lat="47.97803" lon="7.14624">
        <ele>886</ele>
        <time>2017-05-29T06:46:28Z</time>
      </trkpt>
      <trkpt lat="47.97855" lon="7.14561">
        <ele>891</ele>
        <time>2017-05-29T06:48:28Z</time>
      </trkpt>
      <trkpt lat="47.97889" lon="7.14558">
        <ele>889</ele>
        <time>2017-05-29T06:50:28Z</time>
      </trkpt>
      <trkpt lat="47.97937" lon="7.14592">
        <ele>879</ele>
        <time>2017-05-29T06:52:28Z</time>
      </trkpt>
      <trkpt lat="47.97986" lon="7.14624">
        <ele>876</ele>
        <time>2017-05-29T06:54:28Z</time>
      </trkpt>
      <trkpt lat="47.98019" lon="7.1463">
        <ele>874</ele>
        <time>2017-05-29T06:56:28Z</time>
      </trkpt>
      <trkpt lat="47.98076" lon="7.14622">
        <ele>870</ele>
        <time>2017-05-29T06:58:28Z</time>
      </trkpt>
      <trkpt lat="47.98086" lon="7.14586">
        <ele>874</ele>
        <time>2017-05-29T07:00:28Z</time>
      </trkpt>
      <trkpt lat="47.98087" lon="7.14519">
        <ele>871</ele>
        <time>2017-05-29T07:02:28Z</time>
      </trkpt>
      <trkpt lat="47.98062" lon="7.14359">
        <ele>874</ele>
        <time>2017-05-29T07:04:28Z</time>
      </trkpt>
      <trkpt lat="47.9806" lon="7.14305">
        <ele>877</ele>
        <time>2017-05-29T07:06:28Z</time>
      </trkpt>
      <trkpt lat="47.98085" lon="7.14281">
        <ele>871</ele>
        <time>2017-05-29T07:08:28Z</time>
      </trkpt>
      <trkpt lat="47.98096" lon="7.14342">
        <ele>866</ele>
        <time>2017-05-29T07:10:28Z</time>
      </trkpt>
      <trkpt lat="47.98123" lon="7.14401">
        <ele>860</ele>
        <time>2017-05-29T07:12:28Z</time>
      </trkpt>
      <trkpt lat="47.98161" lon="7.14472">
        <ele>843</ele>
        <time>2017-05-29T07:14:28Z</time>
      </trkpt>
      <trkpt lat="47.98213" lon="7.14527">
        <ele>829</ele>
        <time>2017-05-29T07:16:28Z</time>
      </trkpt>
      <trkpt lat="47.98276" lon="7.1457">
        <ele>818</ele>
        <time>2017-05-29T07:18:28Z</time>
      </trkpt>
      <trkpt lat="47.98328" lon="7.14635">
        <ele>816</ele>
        <time>2017-05-29T07:20:28Z</time>
      </trkpt>
      <trkpt lat="47.98354" lon="7.14701">
        <ele>814</ele>
        <time>2017-05-29T07:22:28Z</time>
      </trkpt>
      <trkpt lat="47.98357" lon="7.14802">
        <ele>798</ele>
        <time>2017-05-29T07:24:28Z</time>
      </trkpt>
      <trkpt lat="47.98356" lon="7.14862">
        <ele>788</ele>
        <time>2017-05-29T07:26:28Z</time>
      </trkpt>
      <trkpt lat="47.98406" lon="7.14964">
        <ele>790</ele>
        <time>2017-05-29T07:28:28Z</time>
      </trkpt>
      <trkpt lat="47.98434" lon="7.1494">
        <ele>793</ele>
        <time>2017-05-29T07:30:28Z</time>
      </trkpt>
      <trkpt lat="47.98506" lon="7.14896">
        <ele>795</ele>
        <time>2017-05-29T07:32:28Z</time>
      </trkpt>
      <trkpt lat="47.98535" lon="7.14892">
        <ele>795</ele>
        <time>2017-05-29T07:34:28Z</time>
      </trkpt>
      <trkpt lat="47.98565" lon="7.14895">
        <ele>792</ele>
        <time>2017-05-29T07:36:28Z</time>
      </trkpt>
      <trkpt lat="47.98615" lon="7.14926">
        <ele>778</ele>
        <time>2017-05-29T07:38:28Z</time>
      </trkpt>
      <trkpt lat="47.98668" lon="7.14944">
        <ele>772</ele>
        <time>2017-05-29T07:40:28Z</time>
      </trkpt>
      <trkpt lat="47.9871" lon="7.14982">
        <ele>759</ele>
        <time>2017-05-29T07:42:28Z</time>
      </trkpt>
      <trkpt lat="47.98741" lon="7.14981">
        <ele>760</ele>
        <time>2017-05-29T07:44:28Z</time>
      </trkpt>
      <trkpt lat="47.98781" lon="7.14955">
        <ele>770</ele>
        <time>2017-05-29T07:46:28Z</time>
      </trkpt>
      <trkpt lat="47.98817" lon="7.14941">
        <ele>774</ele>
        <time>2017-05-29T07:48:28Z</time>
      </trkpt>
      <trkpt lat="47.98846" lon="7.14957">
        <ele>775</ele>
        <time>2017-05-29T07:50:28Z</time>
      </trkpt>
      <trkpt lat="47.98845" lon="7.15028">
        <ele>761</ele>
        <time>2017-05-29T07:52:28Z</time>
      </trkpt>
      <trkpt lat="47.98861" lon="7.15086">
        <ele>757</ele>
        <time>2017-05-29T07:54:28Z</time>
      </trkpt>
      <trkpt lat="47.98893" lon="7.15129">
        <ele>761</ele>
        <time>2017-05-29T07:56:28Z</time>
      </trkpt>
      <trkpt lat="47.98971" lon="7.1521">
        <ele>773</ele>
        <time>2017-05-29T07:58:28Z</time>
      </trkpt>
      <trkpt lat="47.99008" lon="7.15277">
        <ele>777</ele>
        <time>2017-05-29T08:00:28Z</time>
      </trkpt>
      <trkpt lat="47.98987" lon="7.15312">
        <ele>770</ele>
        <time>2017-05-29T08:02:28Z</time>
      </trkpt>
      <trkpt lat="47.98938" lon="7.15345">
        <ele>756</ele>
        <time>2017-05-29T08:04:28Z</time>
      </trkpt>
      <trkpt lat="47.98937" lon="7.15375">
        <ele>753</ele>
        <time>2017-05-29T08:06:28Z</time>
      </trkpt>
      <trkpt lat="47.98969" lon="7.15401">
        <ele>760</ele>
        <time>2017-05-29T08:08:28Z</time>
      </trkpt>
      <trkpt lat="47.98999" lon="7.15441">
        <ele>763</ele>
        <time>2017-05-29T08:10:28Z</time>
      </trkpt>
      <trkpt lat="47.99038" lon="7.15485">
        <ele>766</ele>
        <time>2017-05-29T08:12:28Z</time>
      </trkpt>
      <trkpt lat="47.99086" lon="7.15533">
        <ele>767</ele>
        <time>2017-05-29T08:14:28Z</time>
      </trkpt>
      <trkpt lat="47.99128" lon="7.1555">
        <ele>769</ele>
        <time>2017-05-29T08:16:28Z</time>
      </trkpt>
      <trkpt lat="47.99173" lon="7.15547">
        <ele>776</ele>
        <time>2017-05-29T08:18:28Z</time>
      </trkpt>
      <trkpt lat="47.99214" lon="7.15541">
        <ele>777</ele>
        <time>2017-05-29T08:20:28Z</time>
      </trkpt>
      <trkpt lat="47.99291" lon="7.15518">
        <ele>788</ele>
        <time>2017-05-29T08:22:28Z</time>
      </trkpt>
      <trkpt lat="47.99326" lon="7.15548">
        <ele>783</ele>
        <time>2017-05-29T08:24:28Z</time>
      </trkpt>
      <trkpt lat="47.99381" lon="7.1563">
        <ele>770</ele>
        <time>2017-05-29T08:26:28Z</time>
      </trkpt>
      <trkpt lat="47.99422" lon="7.15681">
        <ele>766</ele>
        <time>2017-05-29T08:28:28Z</time>
      </trkpt>
      <trkpt lat="47.99467" lon="7.15692">
        <ele>758</ele>
        <time>2017-05-29T08:30:28Z</time>
      </trkpt>
      <trkpt lat="47.99496" lon="7.15678">
        <ele>759</ele>
        <time>2017-05-29T08:32:28Z</time>
      </trkpt>
      <trkpt lat="47.99507" lon="7.15632">
        <ele>759</ele>
        <time>2017-05-29T08:34:28Z</time>
      </trkpt>
      <trkpt lat="47.99494" lon="7.15453">
        <ele>761</ele>
        <time>2017-05-29T08:36:28Z</time>
      </trkpt>
      <trkpt lat="47.99502" lon="7.15383">
        <ele>757</ele>
        <time>2017-05-29T08:38:28Z</time>
      </trkpt>
      <trkpt lat="47.99517" lon="7.15347">
        <ele>750</ele>
        <time>2017-05-29T08:40:28Z</time>
      </trkpt>
      <trkpt lat="47.99526" lon="7.15288">
        <ele>743</ele>
        <time>2017-05-29T08:42:28Z</time>
      </trkpt>
      <trkpt lat="47.99528" lon="7.15231">
        <ele>736</ele>
        <time>2017-05-29T08:44:28Z</time>
      </trkpt>
      <trkpt lat="47.99509" lon="7.15152">
        <ele>735</ele>
        <time>2017-05-29T08:46:28Z</time>
      </trkpt>
      <trkpt lat="47.99491" lon="7.15087">
        <ele>729</ele>
        <time>2017-05-29T08:48:28Z</time>
      </trkpt>
      <trkpt lat="47.99463" lon="7.15024">
        <ele>730</ele>
        <time>2017-05-29T08:50:28Z</time>
      </trkpt>
      <trkpt lat="47.99446" lon="7.14985">
        <ele>730</ele>
        <time>2017-05-29T08:52:28Z</time>
      </trkpt>
      <trkpt lat="47.9941" lon="7.14928">
        <ele>730</ele>
        <time>2017-05-29T08:54:28Z</time>
      </trkpt>
      <trkpt lat="47.99359" lon="7.14853">
        <ele>742</ele>
        <time>2017-05-29T08:56:28Z</time>
      </trkpt>
      <trkpt lat="47.99315" lon="7.14772">
        <ele>750</ele>
        <time>2017-05-29T08:58:28Z</time>
      </trkpt>
      <trkpt lat="47.99291" lon="7.14709">
        <ele>757</ele>
        <time>2017-05-29T09:00:28Z</time>
      </trkpt>
      <trkpt lat="47.99281" lon="7.14624">
        <ele>765</ele>
        <time>2017-05-29T09:02:28Z</time>
      </trkpt>
      <trkpt lat="47.99283" lon="7.14574">
        <ele>770</ele>
        <time>2017-05-29T09:04:28Z</time>
      </trkpt>
      <trkpt lat="47.99314" lon="7.14574">
        <ele>769</ele>
        <time>2017-05-29T09:06:28Z</time>
      </trkpt>
      <trkpt lat="47.99362" lon="7.14618">
        <ele>767</ele>
        <time>2017-05-29T09:08:28Z</time>
      </trkpt>
      <trkpt lat="47.99399" lon="7.14659">
        <ele>765</ele>
        <time>2017-05-29T09:10:28Z</time>
      </trkpt>
      <trkpt lat="47.99438" lon="7.14682">
        <ele>763</ele>
        <time>2017-05-29T09:12:28Z</time>
      </trkpt>
      <trkpt lat="47.99525" lon="7.1471">
        <ele>765</ele>
        <time>2017-05-29T09:14:28Z</time>
      </trkpt>
      <trkpt lat="47.99584" lon="7.14749">
        <ele>760</ele>
        <time>2017-05-29T09:16:28Z</time>
      </trkpt>
      <trkpt lat="47.99651" lon="7.14779">
        <ele>756</ele>
        <time>2017-05-29T09:18:28Z</time>
      </trkpt>
      <trkpt lat="47.99689" lon="7.14772">
        <ele>754</ele>
        <time>2017-05-29T09:20:28Z</time>
      </trkpt>
      <trkpt lat="47.99725" lon="7.14732">
        <ele>756</ele>
        <time>2017-05-29T09:22:28Z</time>
      </trkpt>
      <trkpt lat="47.99742" lon="7.1469">
        <ele>764</ele>
        <time>2017-05-29T09:24:28Z</time>
      </trkpt>
      <trkpt lat="47.9977" lon="7.14672">
        <ele>761</ele>
        <time>2017-05-29T09:26:28Z</time>
      </trkpt>
      <trkpt lat="47.99809" lon="7.14659">
        <ele>750</ele>
        <time>2017-05-29T09:28:28Z</time>
      </trkpt>
      <trkpt lat="47.99819" lon="7.14637">
        <ele>746</ele>
        <time>2017-05-29T09:30:28Z</time>
      </trkpt>
      <trkpt lat="47.99803" lon="7.14588">
        <ele>753</ele>
        <time>2017-05-29T09:32:28Z</time>
      </trkpt>
      <trkpt lat="47.99752" lon="7.14493">
        <ele>764</ele>
        <time>2017-05-29T09:34:28Z</time>
      </trkpt>
      <trkpt lat="47.99719" lon="7.14416">
        <ele>767</ele>
        <time>2017-05-29T09:36:28Z</time>
      </trkpt>
      <trkpt lat="47.99699" lon="7.14364">
        <ele>771</ele>
        <time>2017-05-29T09:38:28Z</time>
      </trkpt>
      <trkpt lat="47.99686" lon="7.14292">
        <ele>766</ele>
        <time>2017-05-29T09:40:28Z</time>
      </trkpt>
      <trkpt lat="47.99664" lon="7.14223">
        <ele>764</ele>
        <time>2017-05-29T09:42:28Z</time>
      </trkpt>
      <trkpt lat="47.99647" lon="7.14158">
        <ele>763</ele>
        <time>2017-05-29T09:44:28Z</time>
      </trkpt>
      <trkpt lat="47.99684" lon="7.14138">
        <ele>756</ele>
        <time>2017-05-29T09:46:28Z</time>
      </trkpt>
      <trkpt lat="47.99735" lon="7.14156">
        <ele>752</ele>
        <time>2017-05-29T09:48:28Z</time>
      </trkpt>
      <trkpt lat="47.99762" lon="7.14205">
        <ele>746</ele>
        <time>2017-05-29T09:50:28Z</time>
      </trkpt>
      <trkpt lat="47.99797" lon="7.14239">
        <ele>747</ele>
        <time>2017-05-29T09:52:28Z</time>
      </trkpt>
      <trkpt lat="47.99878" lon="7.14296">
        <ele>746</ele>
        <time>2017-05-29T09:54:28Z</time>
      </trkpt>
      <trkpt lat="47.99942" lon="7.14326">
        <ele>745</ele>
        <time>2017-05-29T09:56:28Z</time>
      </trkpt>
      <trkpt lat="48.00029" lon="7.1434">
        <ele>754</ele>
        <time>2017-05-29T09:58:28Z</time>
      </trkpt>
      <trkpt lat="48.00119" lon="7.14342">
        <ele>769</ele>
        <time>2017-05-29T10:00:28Z</time>
      </trkpt>
      <trkpt lat="48.00211" lon="7.14347">
        <ele>777</ele>
        <time>2017-05-29T10:02:28Z</time>
      </trkpt>
      <trkpt lat="48.00255" lon="7.14321">
        <ele>786</ele>
        <time>2017-05-29T10:04:28Z</time>
      </trkpt>
      <trkpt lat="48.00284" lon="7.14283">
        <ele>794</ele>
        <time>2017-05-29T10:06:28Z</time>
      </trkpt>
      <trkpt lat="48.00336" lon="7.14264">
        <ele>795</ele>
        <time>2017-05-29T10:08:28Z</time>
      </trkpt>
      <trkpt lat="48.00397" lon="7.14273">
        <ele>806</ele>
        <time>2017-05-29T10:10:28Z</time>
      </trkpt>
      <trkpt lat="48.00427" lon="7.14299">
        <ele>811</ele>
        <time>2017-05-29T10:12:28Z</time>
      </trkpt>
      <trkpt lat="48.00443" lon="7.14361">
        <ele>807</ele>
        <time>2017-05-29T10:14:28Z</time>
      </trkpt>
      <trkpt lat="48.00433" lon="7.14592">
        <ele>770</ele>
        <time>2017-05-29T10:16:28Z</time>
      </trkpt>
      <trkpt lat="48.00452" lon="7.14684">
        <ele>770</ele>
        <time>2017-05-29T10:18:28Z</time>
      </trkpt>
      <trkpt lat="48.00479" lon="7.14744">
        <ele>770</ele>
        <time>2017-05-29T10:20:28Z</time>
      </trkpt>
      <trkpt lat="48.0051" lon="7.1479">
        <ele>764</ele>
        <time>2017-05-29T10:22:28Z</time>
      </trkpt>
      <trkpt lat="48.00554" lon="7.14825">
        <ele>760</ele>
        <time>2017-05-29T10:24:28Z</time>
      </trkpt>
      <trkpt lat="48.0062" lon="7.14871">
        <ele>767</ele>
        <time>2017-05-29T10:26:28Z</time>
      </trkpt>
      <trkpt lat="48.0063" lon="7.14892">
        <ele>767</ele>
        <time>2017-05-29T10:28:28Z</time>
      </trkpt>
      <trkpt lat="48.00615" lon="7.15035">
        <ele>751</ele>
        <time>2017-05-29T10:30:28Z</time>
      </trkpt>
      <trkpt lat="48.00619" lon="7.15153">
        <ele>754</ele>
        <time>2017-05-29T10:32:28Z</time>
      </trkpt>
      <trkpt lat="48.00629" lon="7.15204">
        <ele>757</ele>
        <time>2017-05-29T10:34:28Z</time>
      </trkpt>
      <trkpt lat="48.00647" lon="7.15239">
        <ele>761</ele>
        <time>2017-05-29T10:36:28Z</time>
      </trkpt>
      <trkpt lat="48.00684" lon="7.15276">
        <ele>767</ele>
        <time>2017-05-29T10:38:28Z</time>
      </trkpt>
      <trkpt lat="48.00741" lon="7.15325">
        <ele>773</ele>
        <time>2017-05-29T10:40:28Z</time>
      </trkpt>
      <trkpt lat="48.0079" lon="7.15397">
        <ele>777</ele>
        <time>2017-05-29T10:42:28Z</time>
      </trkpt>
      <trkpt lat="48.00837" lon="7.15552">
        <ele>783</ele>
        <time>2017-05-29T10:44:28Z</time>
      </trkpt>
      <trkpt lat="48.0085" lon="7.15634">
        <ele>789</ele>
        <time>2017-05-29T10:46:28Z</time>
      </trkpt>
      <trkpt lat="48.00846" lon="7.15711">
        <ele>788</ele>
        <time>2017-05-29T10:48:28Z</time>
      </trkpt>
      <trkpt lat="48.00874" lon="7.15861">
        <ele>787</ele>
        <time>2017-05-29T10:50:28Z</time>
      </trkpt>
      <trkpt lat="48.00909" lon="7.15877">
        <ele>794</ele>
        <time>2017-05-29T10:52:28Z</time>
      </trkpt>
      <trkpt lat="48.0097" lon="7.15876">
        <ele>802</ele>
        <time>2017-05-29T10:54:28Z</time>
      </trkpt>
      <trkpt lat="48.00916" lon="7.15818">
        <ele>806</ele>
        <time>2017-05-29T10:56:28Z</time>
      </trkpt>
      <trkpt lat="48.00917" lon="7.15754">
        <ele>816</ele>
        <time>2017-05-29T10:58:28Z</time>
      </trkpt>
      <trkpt lat="48.00938" lon="7.15672">
        <ele>822</ele>
        <time>2017-05-29T11:00:28Z</time>
      </trkpt>
      <trkpt lat="48.00953" lon="7.15593">
        <ele>828</ele>
        <time>2017-05-29T11:02:28Z</time>
      </trkpt>
      <trkpt lat="48.00952" lon="7.15552">
        <ele>829</ele>
        <time>2017-05-29T11:04:28Z</time>
      </trkpt>
      <trkpt lat="48.0093" lon="7.15487">
        <ele>826</ele>
        <time>2017-05-29T11:06:28Z</time>
      </trkpt>
      <trkpt lat="48.00913" lon="7.15408">
        <ele>828</ele>
        <time>2017-05-29T11:08:28Z</time>
      </trkpt>
      <trkpt lat="48.00917" lon="7.15311">
        <ele>831</ele>
        <time>2017-05-29T11:10:28Z</time>
      </trkpt>
      <trkpt lat="48.00974" lon="7.15346">
        <ele>826</ele>
        <time>2017-05-29T11:12:28Z</time>
      </trkpt>
      <trkpt lat="48.01062" lon="7.15405">
        <ele>819</ele>
        <time>2017-05-29T11:14:28Z</time>
      </trkpt>
      <trkpt lat="48.01146" lon="7.15443">
        <ele>807</ele>
        <time>2017-05-29T11:16:28Z</time>
      </trkpt>
      <trkpt lat="48.01356" lon="7.15485">
        <ele>777</ele>
        <time>2017-05-29T11:18:28Z</time>
      </trkpt>
      <trkpt lat="48.01555" lon="7.15463">
        <ele>748</ele>
        <time>2017-05-29T11:20:28Z</time>
      </trkpt>
      <trkpt lat="48.01629" lon="7.15463">
        <ele>740</ele>
        <time>2017-05-29T11:22:28Z</time>
      </trkpt>
      <trkpt lat="48.01774" lon="7.155">
        <ele>721</ele>
        <time>2017-05-29T11:24:28Z</time>
      </trkpt>
      <trkpt lat="48.01846" lon="7.15493">
        <ele>711</ele>
        <time>2017-05-29T11:26:28Z</time>
      </trkpt>
      <trkpt lat="48.01888" lon="7.1546">
        <ele>704</ele>
        <time>2017-05-29T11:28:28Z</time>
      </trkpt>
      <trkpt lat="48.01905" lon="7.15428">
        <ele>697</ele>
        <time>2017-05-29T11:30:28Z</time>
      </trkpt>
      <trkpt lat="48.01952" lon="7.15385">
        <ele>692</ele>
        <time>2017-05-29T11:32:28Z</time>
      </trkpt>
      <trkpt lat="48.01975" lon="7.15334">
        <ele>683</ele>
        <time>2017-05-29T11:34:28Z</time>
      </trkpt>
      <trkpt lat="48.01997" lon="7.15235">
        <ele>660</ele>
        <time>2017-05-29T11:36:28Z</time>
      </trkpt>
      <trkpt lat="48.02036" lon="7.15218">
        <ele>655</ele>
        <time>2017-05-29T11:38:28Z</time>
      </trkpt>
      <trkpt lat="48.02098" lon="7.15248">
        <ele>662</ele>
        <time>2017-05-29T11:40:28Z</time>
      </trkpt>
      <trkpt lat="48.02193" lon="7.15172">
        <ele>639</ele>
        <time>2017-05-29T11:42:28Z</time>
      </trkpt>
      <trkpt lat="48.02259" lon="7.15145">
        <ele>635</ele>
        <time>2017-05-29T11:44:28Z</time>
      </trkpt>
      <trkpt lat="48.0232" lon="7.15033">
        <ele>615</ele>
        <time>2017-05-29T11:46:28Z</time>
      </trkpt>
      <trkpt lat="48.02359" lon="7.15016">
        <ele>611</ele>
        <time>2017-05-29T11:48:28Z</time>
      </trkpt>
      <trkpt lat="48.02401" lon="7.15037">
        <ele>614</ele>
        <time>2017-05-29T11:50:28Z</time>
      </trkpt>
      <trkpt lat="48.02437" lon="7.15057">
        <ele>618</ele>
        <time>2017-05-29T11:52:28Z</time>
      </trkpt>
      <trkpt lat="48.02475" lon="7.15044">
        <ele>610</ele>
        <time>2017-05-29T11:54:28Z</time>
      </trkpt>
      <trkpt lat="48.02515" lon="7.15007">
        <ele>595</ele>
        <time>2017-05-29T11:56:28Z</time>
      </trkpt>
      <trkpt lat="48.0257" lon="7.14992">
        <ele>588</ele>
        <time>2017-05-29T11:58:28Z</time>
      </trkpt>
      <trkpt lat="48.02707" lon="7.15001">
        <ele>573</ele>
        <time>2017-05-29T12:00:28Z</time>
      </trkpt>
      <trkpt lat="48.0285" lon="7.15034">
        <ele>555</ele>
        <time>2017-05-29T12:02:28Z</time>
      </trkpt>
      <trkpt lat="48.02903" lon="7.1511">
        <ele>561</ele>
        <time>2017-05-29T12:04:28Z</time>
      </trkpt>
      <trkpt lat="48.02972" lon="7.1517">
        <ele>555</ele>
        <time>2017-05-29T12:06:28Z</time>
      </trkpt>
      <trkpt lat="48.03016" lon="7.15157">
        <ele>540</ele>
        <time>2017-05-29T12:08:28Z</time>
      </trkpt>
      <trkpt lat="48.03077" lon="7.15213">
        <ele>533</ele>
        <time>2017-05-29T12:10:28Z</time>
      </trkpt>
      <trkpt lat="48.03091" lon="7.15254">
        <ele>529</ele>
        <time>2017-05-29T12:12:28Z</time>
      </trkpt>
      <trkpt lat="48.03073" lon="7.1531">
        <ele>531</ele>
        <time>2017-05-29T12:14:28Z</time>
      </trkpt>
      <trkpt lat="48.03029" lon="7.15383">
        <ele>548</ele>
        <time>2017-05-29T12:16:28Z</time>
      </trkpt>
      <trkpt lat="48.03003" lon="7.15465">
        <ele>556</ele>
        <time>2017-05-29T12:18:28Z</time>
      </trkpt>
      <trkpt lat="48.03006" lon="7.15512">
        <ele>556</ele>
        <time>2017-05-29T12:20:28Z</time>
      </trkpt>
      <trkpt lat="48.02999" lon="7.15558">
        <ele>567</ele>
        <time>2017-05-29T12:22:28Z</time>
      </trkpt>
      <trkpt lat="48.03027" lon="7.15598">
        <ele>567</ele>
        <time>2017-05-29T12:24:28Z</time>
      </trkpt>
      <trkpt lat="48.03108" lon="7.15652">
        <ele>565</ele>
        <time>2017-05-29T12:26:28Z</time>
      </trkpt>
      <trkpt lat="48.03153" lon="7.1571">
        <ele>574</ele>
        <time>2017-05-29T12:28:28Z</time>
      </trkpt>
      <trkpt lat="48.0318" lon="7.15763">
        <ele>577</ele>
        <time>2017-05-29T12:30:28Z</time>
      </trkpt>
      <trkpt lat="48.03188" lon="7.15848">
        <ele>579</ele>
        <time>2017-05-29T12:32:28Z</time>
      </trkpt>
      <trkpt lat="48.0317" lon="7.1595">
        <ele>589</ele>
        <time>2017-05-29T12:34:28Z</time>
      </trkpt>
      <trkpt lat="48.03206" lon="7.16017">
        <ele>581</ele>
        <time>2017-05-29T12:36:28Z</time>
      </trkpt>
      <trkpt lat="48.03279" lon="7.16091">
        <ele>577</ele>
        <time>2017-05-29T12:38:28Z</time>
      </trkpt>
      <trkpt lat="48.03336" lon="7.1613">
        <ele>573</ele>
        <time>2017-05-29T12:40:28Z</time>
      </trkpt>
      <trkpt lat="48.03396" lon="7.16162">
        <ele>569</ele>
        <time>2017-05-29T12:42:28Z</time>
      </trkpt>
      <trkpt lat="48.03458" lon="7.16228">
        <ele>569</ele>
        <time>2017-05-29T12:44:28Z</time>
      </trkpt>
      <trkpt lat="48.03497" lon="7.16316">
        <ele>562</ele>
        <time>2017-05-29T12:46:28Z</time>
      </trkpt>
      <trkpt lat="48.0356" lon="7.16382">
        <ele>558</ele>
        <time>2017-05-29T12:48:28Z</time>
      </trkpt>
      <trkpt lat="48.03626" lon="7.16462">
        <ele>553</ele>
        <time>2017-05-29T12:50:28Z</time>
      </trkpt>
      <trkpt lat="48.03666" lon="7.16493">
        <ele>553</ele>
        <time>2017-05-29T12:52:28Z</time>
      </trkpt>
      <trkpt lat="48.03681" lon="7.16447">
        <ele>556</ele>
        <time>2017-05-29T12:54:28Z</time>
      </trkpt>
      <trkpt lat="48.03685" lon="7.16417">
        <ele>557</ele>
        <time>2017-05-29T12:56:28Z</time>
      </trkpt>
      <trkpt lat="48.03677" lon="7.16379">
        <ele>556</ele>
        <time>2017-05-29T12:58:28Z</time>
      </trkpt>
      <trkpt lat="48.03669" lon="7.16348">
        <ele>555</ele>
        <time>2017-05-29T13:00:28Z</time>
      </trkpt>
      <trkpt lat="48.03653" lon="7.16317">
        <ele>552</ele>
        <time>2017-05-29T13:02:28Z</time>
      </trkpt>
      <trkpt lat="48.03636" lon="7.16292">
        <ele>550</ele>
        <time>2017-05-29T13:04:28Z</time>
      </trkpt>
      <trkpt lat="48.03628" lon="7.16271">
        <ele>547</ele>
        <time>2017-05-29T13:06:28Z</time>
      </trkpt>
      <trkpt lat="48.03639" lon="7.16258">
        <ele>543</ele>
        <time>2017-05-29T13:08:28Z</time>
      </trkpt>
      <trkpt lat="48.03664" lon="7.16264">
        <ele>540</ele>
        <time>2017-05-29T13:10:28Z</time>
      </trkpt>
      <trkpt lat="48.03685" lon="7.163">
        <ele>542</ele>
        <time>2017-05-29T13:12:28Z</time>
      </trkpt>
      <trkpt lat="48.03707" lon="7.16322">
        <ele>542</ele>
        <time>2017-05-29T13:14:28Z</time>
      </trkpt>
      <trkpt lat="48.03731" lon="7.16374">
        <ele>543</ele>
        <time>2017-05-29T13:16:28Z</time>
      </trkpt>
      <trkpt lat="48.03745" lon="7.16362">
        <ele>539</ele>
        <time>2017-05-29T13:18:28Z</time>
      </trkpt>
      <trkpt lat="48.03727" lon="7.16307">
        <ele>533</ele>
        <time>2017-05-29T13:20:28Z</time>
      </trkpt>
      <trkpt lat="48.03703" lon="7.16254">
        <ele>527</ele>
        <time>2017-05-29T13:22:28Z</time>
      </trkpt>
      <trkpt lat="48.03657" lon="7.16203">
        <ele>527</ele>
        <time>2017-05-29T13:24:28Z</time>
      </trkpt>
      <trkpt lat="48.03623" lon="7.1616">
        <ele>525</ele>
        <time>2017-05-29T13:26:28Z</time>
      </trkpt>
      <trkpt lat="48.0361" lon="7.16095">
        <ele>511</ele>
        <time>2017-05-29T13:28:28Z</time>
      </trkpt>
      <trkpt lat="48.03576" lon="7.16051">
        <ele>510</ele>
        <time>2017-05-29T13:30:28Z</time>
      </trkpt>
      <trkpt lat="48.03533" lon="7.16003">
        <ele>508</ele>
        <time>2017-05-29T13:32:28Z</time>
      </trkpt>
      <trkpt lat="48.03571" lon="7.16">
        <ele>499</ele>
        <time>2017-05-29T13:34:28Z</time>
      </trkpt>
      <trkpt lat="48.03783" lon="7.16211">
        <ele>492</ele>
        <time>2017-05-29T13:36:28Z</time>
      </trkpt>
      <trkpt lat="48.03853" lon="7.16271">
        <ele>481</ele>
        <time>2017-05-29T13:38:28Z</time>
      </trkpt>
      <trkpt lat="48.03861" lon="7.16232">
        <ele>471</ele>
        <time>2017-05-29T13:40:28Z</time>
      </trkpt>
      <trkpt lat="48.03838" lon="7.16186">
        <ele>471</ele>
        <time>2017-05-29T13:42:28Z</time>
      </trkpt>
      <trkpt lat="48.03791" lon="7.16131">
        <ele>470</ele>
        <time>2017-05-29T13:44:28Z</time>
      </trkpt>
      <trkpt lat="48.03736" lon="7.16049">
        <ele>467</ele>
        <time>2017-05-29T13:46:28Z</time>
      </trkpt>
      <trkpt lat="48.03717" lon="7.16004">
        <ele>464</ele>
        <time>2017-05-29T13:48:28Z</time>
      </trkpt>
      <trkpt lat="48.03709" lon="7.15946">
        <ele>459</ele>
        <time>2017-05-29T13:50:28Z</time>
      </trkpt>
      <trkpt lat="48.03713" lon="7.15889">
        <ele>452</ele>
        <time>2017-05-29T13:52:28Z</time>
      </trkpt>
      <trkpt lat="48.03715" lon="7.15836">
        <ele>448</ele>
        <time>2017-05-29T13:54:28Z</time>
      </trkpt>
      <trkpt lat="48.03701" lon="7.15801">
        <ele>447</ele>
        <time>2017-05-29T13:56:28Z</time>
      </trkpt>
      <trkpt lat="48.03671" lon="7.15758">
        <ele>447</ele>
        <time>2017-05-29T13:58:28Z</time>
      </trkpt>
      <trkpt lat="48.03638" lon="7.15734">
        <ele>444</ele>
        <time>2017-05-29T14:00:28Z</time>
      </trkpt>
      <trkpt lat="48.03652" lon="7.15722">
        <ele>440</ele>
        <time>2017-05-29T14:02:28Z</time>
      </trkpt>
      <trkpt lat="48.03713" lon="7.15731">
        <ele>433</ele>
        <time>2017-05-29T14:04:28Z</time>
      </trkpt>
      <trkpt lat="48.03748" lon="7.15748">
        <ele>431</ele>
        <time>2017-05-29T14:06:28Z</time>
      </trkpt>
      <trkpt lat="48.03772" lon="7.15774">
        <ele>429</ele>
        <time>2017-05-29T14:08:28Z</time>
      </trkpt>
      <trkpt lat="48.03791" lon="7.15792">
        <ele>426</ele>
        <time>2017-05-29T14:10:28Z</time>
      </trkpt>
      <trkpt lat="48.03814" lon="7.15801">
        <ele>422</ele>
        <time>2017-05-29T14:12:28Z</time>
      </trkpt>
      <trkpt lat="48.03826" lon="7.15775">
        <ele>419</ele>
        <time>2017-05-29T14:14:28Z</time>
      </trkpt>
      <trkpt lat="48.03804" lon="7.1575">
        <ele>423</ele>
        <time>2017-05-29T14:16:28Z</time>
      </trkpt>
      <trkpt lat="48.03763" lon="7.15719">
        <ele>423</ele>
        <time>2017-05-29T14:18:28Z</time>
      </trkpt>
      <trkpt lat="48.03757" lon="7.15695">
        <ele>419</ele>
        <time>2017-05-29T14:20:28Z</time>
      </trkpt>
      <trkpt lat="48.03795" lon="7.15695">
        <ele>414</ele>
        <time>2017-05-29T14:22:28Z</time>
      </trkpt>
      <trkpt lat="48.03824" lon="7.15721">
        <ele>415</ele>
        <time>2017-05-29T14:24:28Z</time>
      </trkpt>
      <trkpt lat="48.0387" lon="7.15749">
        <ele>406</ele>
        <time>2017-05-29T14:26:28Z</time>
      </trkpt>
      <trkpt lat="48.03886" lon="7.1575">
        <ele>400</ele>
        <time>2017-05-29T14:28:28Z</time>
      </trkpt>
      <trkpt lat="48.03894" lon="7.15711">
        <ele>392</ele>
        <time>2017-05-29T14:30:28Z</time>
      </trkpt>
      <trkpt lat="48.03871" lon="7.15672">
        <ele>394</ele>
        <time>2017-05-29T14:32:28Z</time>
      </trkpt>
      <trkpt lat="48.03836" lon="7.15628">
        <ele>396</ele>
        <time>2017-05-29T14:34:28Z</time>
      </trkpt>
      <trkpt lat="48.03772" lon="7.15612">
        <ele>402</ele>
        <time>2017-05-29T14:36:28Z</time>
      </trkpt>
      <trkpt lat="48.03714" lon="7.156">
        <ele>407</ele>
        <time>2017-05-29T14:38:28Z</time>
      </trkpt>
      <trkpt lat="48.03713" lon="7.15573">
        <ele>405</ele>
        <time>2017-05-29T14:40:28Z</time>
      </trkpt>
      <trkpt lat="48.03732" lon="7.15548">
        <ele>405</ele>
        <time>2017-05-29T14:42:28Z</time>
      </trkpt>
      <trkpt lat="48.03773" lon="7.15538">
        <ele>397</ele>
        <time>2017-05-29T14:44:28Z</time>
      </trkpt>
      <trkpt lat="48.03823" lon="7.15516">
        <ele>382</ele>
        <time>2017-05-29T14:46:28Z</time>
      </trkpt>
      <trkpt lat="48.03833" lon="7.15484">
        <ele>377</ele>
        <time>2017-05-29T14:48:28Z</time>
      </trkpt>
      <trkpt lat="48.03878" lon="7.15333">
        <ele>372</ele>
        <time>2017-05-29T14:50:28Z</time>
      </trkpt>
      <trkpt lat="48.03873" lon="7.15239">
        <ele>369</ele>
        <time>2017-05-29T14:52:28Z</time>
      </trkpt>
      <trkpt lat="48.03861" lon="7.15187">
        <ele>370</ele>
        <time>2017-05-29T14:54:28Z</time>
      </trkpt>
      <trkpt lat="48.03884" lon="7.15176">
        <ele>367</ele>
        <time>2017-05-29T14:56:28Z</time>
      </trkpt>
    </trkseg>
  </trk>
</gpx>